Time;durP1;ratioP1;P1;durP2;ratioP2;P2;SDS_P1;SDS_P2;PMS_P1;PMS_P2;Temp;Humidity;BMP_temperature;BMP_pressure;BME280_temperature;BME280_humidity;BME280_pressure;Samples;Min_cycle;Max_cycle;Signal;HPM_P1;HPM_P2
2022/10/06 00:00:27;;;;;;;2.43;2.23;;;15.10;99.90;;;;;;5026854;28;20590;-50
2022/10/06 00:02:53;;;;;;;3.17;2.90;;;15.00;99.90;;;;;;5031374;28;20589;-49
2022/10/06 00:05:20;;;;;;;3.27;2.57;;;15.00;99.90;;;;;;5033079;28;20944;-50
2022/10/06 00:07:46;;;;;;;4.10;2.97;;;15.00;99.90;;;;;;5031240;28;20562;-50
2022/10/06 00:10:13;;;;;;;2.37;2.27;;;14.90;99.90;;;;;;5032298;28;21149;-49
2022/10/06 00:12:41;;;;;;;4.00;2.47;;;14.90;99.90;;;;;;5031466;28;20466;-49
2022/10/06 00:15:09;;;;;;;2.50;2.40;;;14.90;99.90;;;;;;5028935;28;20569;-50
2022/10/06 00:17:37;;;;;;;2.30;2.20;;;14.80;99.90;;;;;;5030530;28;20895;-50
2022/10/06 00:20:05;;;;;;;3.30;2.40;;;14.80;99.90;;;;;;5033297;28;20550;-50
2022/10/06 00:22:34;;;;;;;3.30;2.50;;;14.80;99.90;;;;;;5032853;28;20545;-49
2022/10/06 00:25:00;;;;;;;2.60;2.30;;;14.70;99.90;;;;;;5031018;28;21052;-49
2022/10/06 00:27:33;;;;;;;2.53;2.43;;;14.80;99.90;;;;;;5033412;28;20489;-49
2022/10/06 00:29:59;;;;;;;2.90;2.70;;;14.70;99.90;;;;;;5033197;28;20505;-50
2022/10/06 00:32:26;;;;;;;6.83;2.70;;;14.70;99.90;;;;;;5032223;28;20557;-50
2022/10/06 00:34:54;;;;;;;2.40;2.20;;;14.70;99.90;;;;;;5031574;28;20912;-48
2022/10/06 00:37:20;;;;;;;7.30;2.87;;;14.60;99.90;;;;;;5033076;28;21031;-49
2022/10/06 00:39:47;;;;;;;4.23;2.50;;;14.70;99.90;;;;;;5032556;28;20567;-49
2022/10/06 00:42:24;;;;;;;3.40;3.10;;;14.60;99.90;;;;;;5030157;28;20558;-48
2022/10/06 00:44:51;;;;;;;3.00;2.80;;;14.60;99.90;;;;;;5028993;28;20565;-49
2022/10/06 00:47:18;;;;;;;2.70;2.50;;;14.70;99.90;;;;;;5029853;28;20501;-48
2022/10/06 00:49:45;;;;;;;2.83;2.63;;;14.70;99.90;;;;;;5029148;28;21023;-50
2022/10/06 00:52:18;;;;;;;3.77;2.80;;;14.60;99.90;;;;;;5030691;28;20553;-51
2022/10/06 00:54:44;;;;;;;3.33;3.00;;;14.60;99.90;;;;;;5025333;28;20475;-49
2022/10/06 00:57:12;;;;;;;5.80;2.80;;;14.70;99.90;;;;;;5031743;28;20498;-49
2022/10/06 00:59:40;;;;;;;3.37;2.57;;;14.70;99.90;;;;;;5030704;28;20490;-50
2022/10/06 01:02:12;;;;;;;3.00;2.80;;;14.70;99.90;;;;;;5029406;28;20545;-50
2022/10/06 01:04:44;;;;;;;2.87;2.40;;;14.70;99.90;;;;;;5030458;28;20566;-50
2022/10/06 01:07:13;;;;;;;6.20;2.73;;;14.80;99.90;;;;;;5033408;28;20457;-49
2022/10/06 01:09:40;;;;;;;2.93;2.70;;;14.80;99.90;;;;;;5031818;28;20919;-50
2022/10/06 01:12:08;;;;;;;3.03;2.53;;;14.80;99.90;;;;;;5030857;28;20550;-49
2022/10/06 01:14:37;;;;;;;4.80;2.77;;;14.80;99.90;;;;;;5029392;28;20589;-50
2022/10/06 01:17:08;;;;;;;3.13;2.93;;;14.90;99.90;;;;;;5033236;28;20483;-50
2022/10/06 01:19:43;;;;;;;8.37;3.70;;;14.90;99.90;;;;;;5030022;28;21124;-48
2022/10/06 01:22:14;;;;;;;8.30;3.60;;;15.00;99.90;;;;;;5028037;28;20557;-49
2022/10/06 01:24:43;;;;;;;2.67;2.47;;;15.00;99.90;;;;;;5028581;28;20570;-49
2022/10/06 01:27:11;;;;;;;3.40;2.50;;;15.10;99.90;;;;;;5032997;28;20470;-49
2022/10/06 01:29:38;;;;;;;6.67;2.93;;;15.10;99.90;;;;;;5031293;28;20873;-48
2022/10/06 01:32:04;;;;;;;3.57;3.30;;;15.10;99.90;;;;;;5028390;28;20501;-49
2022/10/06 01:34:31;;;;;;;3.17;2.73;;;15.20;99.90;;;;;;5029994;28;20570;-49
2022/10/06 01:36:57;;;;;;;4.57;3.33;;;15.20;99.90;;;;;;5031904;28;20439;-49
2022/10/06 01:39:24;;;;;;;6.90;3.20;;;15.10;99.90;;;;;;5030789;28;20546;-50
2022/10/06 01:41:52;;;;;;;4.27;3.10;;;15.20;99.90;;;;;;5028606;28;20462;-49
2022/10/06 01:44:18;;;;;;;6.33;3.87;;;15.10;99.90;;;;;;5028496;28;21079;-49
2022/10/06 01:46:45;;;;;;;3.80;3.50;;;15.20;99.90;;;;;;5027401;28;20569;-49
2022/10/06 01:49:11;;;;;;;4.57;3.50;;;15.20;99.90;;;;;;5028600;28;20952;-50
2022/10/06 01:51:38;;;;;;;8.40;4.10;;;15.20;99.90;;;;;;5029038;28;20541;-49
2022/10/06 01:54:04;;;;;;;8.40;4.23;;;15.20;99.90;;;;;;5026568;28;20586;-49
2022/10/06 01:56:31;;;;;;;6.43;4.27;;;15.20;99.90;;;;;;5027711;28;20537;-48
2022/10/06 01:58:59;;;;;;;10.27;5.30;;;15.20;99.90;;;;;;5024655;28;20559;-50
2022/10/06 02:01:25;;;;;;;9.47;5.77;;;15.20;99.90;;;;;;5028304;28;20902;-49
2022/10/06 02:03:52;;;;;;;6.10;5.20;;;15.20;99.90;;;;;;5028224;28;20533;-49
2022/10/06 02:06:18;;;;;;;12.23;6.07;;;15.20;99.90;;;;;;5027042;28;20566;-49
2022/10/06 02:08:45;;;;;;;7.33;4.93;;;15.20;99.90;;;;;;5030499;28;20999;-49
2022/10/06 02:11:12;;;;;;;4.70;3.77;;;15.20;99.90;;;;;;5029819;28;20554;-49
2022/10/06 02:13:39;;;;;;;5.43;4.17;;;15.20;99.90;;;;;;5025860;28;20554;-49
2022/10/06 02:16:08;;;;;;;4.33;3.40;;;15.20;99.90;;;;;;5029060;28;20550;-49
2022/10/06 02:18:36;;;;;;;4.53;3.43;;;15.20;99.90;;;;;;5030471;28;20520;-49
2022/10/06 02:21:03;;;;;;;4.17;2.97;;;15.20;99.90;;;;;;5029390;28;20520;-48
2022/10/06 02:23:30;;;;;;;3.10;2.83;;;15.10;99.90;;;;;;5028695;28;20558;-49
2022/10/06 02:26:00;;;;;;;3.13;2.93;;;15.10;99.90;;;;;;5025534;28;20578;-49
2022/10/06 02:28:27;;;;;;;3.03;2.40;;;15.10;99.90;;;;;;5027905;28;20562;-50
2022/10/06 02:30:54;;;;;;;2.30;2.20;;;15.10;99.90;;;;;;5029533;28;20909;-50
2022/10/06 02:33:22;;;;;;;3.33;2.73;;;15.00;99.90;;;;;;5028547;28;20471;-49
2022/10/06 02:35:54;;;;;;;3.83;2.73;;;15.00;99.90;;;;;;5028178;28;20530;-49
2022/10/06 02:38:20;;;;;;;2.60;2.40;;;14.90;99.90;;;;;;5031318;28;20817;-50
2022/10/06 02:40:47;;;;;;;4.60;3.03;;;14.90;99.90;;;;;;5028632;28;21019;-49
2022/10/06 02:43:14;;;;;;;2.43;2.33;;;14.90;99.90;;;;;;5026452;28;20562;-50
2022/10/06 02:45:42;;;;;;;3.07;2.97;;;14.90;99.90;;;;;;5026788;28;20573;-48
2022/10/06 02:48:10;;;;;;;8.43;3.03;;;14.90;99.90;;;;;;5025996;28;20455;-49
2022/10/06 02:50:38;;;;;;;3.00;2.70;;;14.90;99.90;;;;;;5030215;28;20458;-49
2022/10/06 02:53:05;;;;;;;5.00;2.60;;;14.90;99.90;;;;;;5027709;28;20905;-49
2022/10/06 02:55:32;;;;;;;2.50;2.30;;;14.90;99.90;;;;;;5027032;28;20479;-48
2022/10/06 02:57:59;;;;;;;2.60;2.40;;;14.90;99.90;;;;;;5027673;28;20561;-49
2022/10/06 03:00:25;;;;;;;4.43;2.97;;;15.00;99.90;;;;;;5028193;28;20469;-54
2022/10/06 03:02:52;;;;;;;3.10;2.80;;;15.00;99.90;;;;;;5028385;28;20558;-49
2022/10/06 03:05:19;;;;;;;3.10;2.80;;;15.10;99.90;;;;;;5030811;28;20486;-47
2022/10/06 03:07:47;;;;;;;3.83;2.77;;;15.10;99.90;;;;;;5029132;28;20582;-48
2022/10/06 03:10:13;;;;;;;4.20;3.40;;;15.10;99.90;;;;;;5029745;28;20546;-48
2022/10/06 03:12:40;;;;;;;6.13;3.10;;;15.20;99.90;;;;;;5027890;28;20554;-48
2022/10/06 03:15:07;;;;;;;4.63;3.70;;;15.20;99.90;;;;;;5029011;28;20565;-48
2022/10/06 03:17:34;;;;;;;8.73;3.20;;;15.20;99.90;;;;;;5030109;28;20457;-48
2022/10/06 03:20:00;;;;;;;5.90;3.60;;;15.30;99.90;;;;;;5033443;28;21024;-48
2022/10/06 03:22:27;;;;;;;9.50;4.13;;;15.30;99.40;;;;;;5032104;28;20537;-48
2022/10/06 03:24:55;;;;;;;9.87;5.87;;;15.30;98.00;;;;;;5033224;28;20934;-48
2022/10/06 03:27:21;;;;;;;12.63;5.80;;;15.30;97.00;;;;;;5034313;28;20991;-47
2022/10/06 03:29:48;;;;;;;12.17;6.53;;;15.40;95.80;;;;;;5032534;28;20547;-48
2022/10/06 03:32:15;;;;;;;16.77;5.60;;;15.40;95.60;;;;;;5033234;28;21016;-48
2022/10/06 03:34:42;;;;;;;15.30;6.30;;;15.40;92.90;;;;;;5032375;28;20569;-48
2022/10/06 03:37:08;;;;;;;10.07;5.30;;;15.40;91.10;;;;;;5030518;28;20545;-48
2022/10/06 03:39:35;;;;;;;4.80;3.90;;;15.40;84.40;;;;;;5032757;28;20525;-48
2022/10/06 03:42:03;;;;;;;7.00;4.60;;;15.30;80.50;;;;;;5031702;28;20497;-47
2022/10/06 03:44:31;;;;;;;5.53;3.40;;;15.30;77.20;;;;;;5027508;28;20561;-48
2022/10/06 03:46:57;;;;;;;5.23;3.00;;;15.20;74.90;;;;;;5029875;28;20509;-48
2022/10/06 03:49:24;;;;;;;5.47;3.13;;;15.20;71.70;;;;;;5030368;28;20502;-47
2022/10/06 03:51:50;;;;;;;4.50;3.50;;;15.20;66.60;;;;;;5032919;28;20467;-47
2022/10/06 03:54:17;;;;;;;5.07;2.70;;;15.20;63.40;;;;;;5032022;28;20522;-48
2022/10/06 03:56:43;;;;;;;3.50;3.20;;;15.20;62.30;;;;;;5030104;28;20493;-47
2022/10/06 03:59:12;;;;;;;2.73;2.40;;;15.20;61.30;;;;;;5029038;28;20557;-48
2022/10/06 04:01:41;;;;;;;2.70;2.50;;;15.20;60.30;;;;;;5028673;28;20597;-48
2022/10/06 04:04:09;;;;;;;8.63;2.23;;;15.20;59.70;;;;;;5024940;28;20489;-48
2022/10/06 04:06:38;;;;;;;2.53;2.33;;;15.20;60.10;;;;;;5032245;28;21004;-48
2022/10/06 04:09:06;;;;;;;3.40;2.30;;;15.20;60.40;;;;;;5030726;28;20545;-48
2022/10/06 04:11:34;;;;;;;2.50;2.30;;;15.20;60.40;;;;;;5031476;28;20538;-47
2022/10/06 04:14:03;;;;;;;2.20;2.00;;;15.20;59.90;;;;;;5028167;28;21079;-47
2022/10/06 04:16:32;;;;;;;9.17;2.47;;;15.20;60.70;;;;;;5032597;28;20465;-48
2022/10/06 04:19:00;;;;;;;3.43;2.80;;;15.20;59.80;;;;;;5031606;28;20554;-48
2022/10/06 04:21:29;;;;;;;9.37;2.10;;;15.20;56.00;;;;;;5027953;28;20553;-48
2022/10/06 04:23:56;;;;;;;4.30;2.10;;;15.30;99.90;;;;;;5026540;28;20577;-47
2022/10/06 04:26:25;;;;;;;3.00;2.33;;;15.20;91.70;;;;;;5030306;28;21035;-46
2022/10/06 04:28:52;;;;;;;2.33;2.13;;;15.30;88.20;;;;;;5028470;28;20455;-48
2022/10/06 04:31:21;;;;;;;3.37;2.13;;;15.30;85.80;;;;;;5030267;28;20455;-49
2022/10/06 04:33:52;;;;;;;1.63;1.53;;;15.30;81.60;;;;;;5032395;28;20474;-48
2022/10/06 04:36:21;;;;;;;2.63;2.40;;;15.30;81.70;;;;;;5031763;28;20545;-48
2022/10/06 04:38:48;;;;;;;9.27;4.23;;;15.20;86.20;;;;;;5029251;28;21186;-48
2022/10/06 04:41:17;;;;;;;9.17;5.73;;;15.20;94.80;;;;;;5028471;28;20543;-48
2022/10/06 04:43:45;;;;;;;2.63;2.47;;;15.30;97.40;;;;;;5027880;28;20886;-49
2022/10/06 04:46:12;;;;;;;3.50;2.50;;;15.30;99.90;;;;;;5029712;28;20478;-51
2022/10/06 04:48:38;;;;;;;1.70;1.60;;;15.30;99.90;;;;;;5029702;28;20501;-51
2022/10/06 04:51:09;;;;;;;1.63;1.57;;;15.20;99.90;;;;;;5029730;28;20569;-50
2022/10/06 04:53:36;;;;;;;2.13;1.10;;;15.20;99.90;;;;;;5028678;28;20509;-50
2022/10/06 04:56:05;;;;;;;2.00;1.30;;;15.20;99.90;;;;;;5028844;28;20541;-50
2022/10/06 04:58:33;;;;;;;2.10;1.03;;;15.20;99.90;;;;;;5029386;28;20486;-51
2022/10/06 05:00:59;;;;;;;4.97;1.10;;;15.30;99.90;;;;;;5024675;28;20546;-50
2022/10/06 05:03:27;;;;;;;1.20;0.97;;;15.20;99.90;;;;;;5028231;28;20454;-50
2022/10/06 05:06:01;;;;;;;1.70;0.90;;;15.20;99.90;;;;;;5033293;28;20548;-47
2022/10/06 05:08:29;;;;;;;2.90;0.90;;;15.20;99.90;;;;;;5030194;28;20513;-48
2022/10/06 05:11:00;;;;;;;3.63;1.17;;;15.20;99.90;;;;;;5033670;28;20478;-48
2022/10/06 05:13:26;;;;;;;1.40;0.70;;;15.20;99.90;;;;;;5029974;28;20463;-48
2022/10/06 05:15:56;;;;;;;6.70;0.90;;;15.10;99.90;;;;;;5026635;28;20494;-48
2022/10/06 05:18:23;;;;;;;2.30;0.93;;;15.20;99.90;;;;;;5029096;28;20483;-48
2022/10/06 05:20:56;;;;;;;1.73;0.70;;;15.10;99.90;;;;;;5028077;28;21042;-48
2022/10/06 05:23:23;;;;;;;0.60;0.60;;;15.10;99.90;;;;;;5022133;28;20961;-51
2022/10/06 05:25:55;;;;;;;3.57;1.07;;;15.20;99.90;;;;;;5030746;28;20487;-49
2022/10/06 05:28:23;;;;;;;2.30;1.00;;;15.10;99.90;;;;;;5031817;28;20550;-48
2022/10/06 05:30:56;;;;;;;2.67;1.10;;;15.00;99.90;;;;;;5029801;28;20455;-48
2022/10/06 05:33:24;;;;;;;0.90;0.70;;;15.00;99.90;;;;;;5026439;28;20960;-48
2022/10/06 05:35:51;;;;;;;1.17;0.63;;;14.90;99.90;;;;;;5033040;28;20525;-48
2022/10/06 05:38:18;;;;;;;2.97;0.70;;;14.90;99.90;;;;;;5030076;28;20569;-47
2022/10/06 05:40:44;;;;;;;3.30;0.93;;;14.80;99.90;;;;;;5031026;28;20545;-48
2022/10/06 05:43:12;;;;;;;1.57;1.33;;;14.80;99.90;;;;;;5030619;28;20466;-48
2022/10/06 05:45:39;;;;;;;1.27;0.80;;;14.70;99.90;;;;;;5032593;28;20457;-48
2022/10/06 05:48:05;;;;;;;1.37;0.83;;;14.60;99.90;;;;;;5029874;28;20570;-48
2022/10/06 05:50:32;;;;;;;1.87;1.10;;;14.60;99.90;;;;;;5026557;28;20876;-47
2022/10/06 05:52:58;;;;;;;3.17;0.93;;;14.50;99.90;;;;;;5029920;28;20505;-49
2022/10/06 05:55:25;;;;;;;1.23;0.60;;;14.50;99.90;;;;;;5030556;28;20490;-49
2022/10/06 05:57:54;;;;;;;1.77;0.80;;;14.50;99.90;;;;;;5030912;28;20544;-49
2022/10/06 06:00:22;;;;;;;1.60;1.07;;;14.50;99.90;;;;;;5033387;28;20524;-48
2022/10/06 06:02:49;;;;;;;2.47;1.07;;;14.40;99.90;;;;;;5027881;28;20490;-48
2022/10/06 06:05:15;;;;;;;1.67;0.83;;;14.40;99.90;;;;;;5029692;28;21065;-49
2022/10/06 06:07:42;;;;;;;4.07;0.90;;;14.40;99.90;;;;;;5029620;28;20526;-48
2022/10/06 06:10:09;;;;;;;2.87;0.80;;;14.40;99.90;;;;;;5024754;28;20649;-48
2022/10/06 06:12:35;;;;;;;0.93;0.80;;;14.40;99.90;;;;;;5019716;28;20553;-51
2022/10/06 06:17:47;;;;;;;0.80;0.80;;;14.40;99.90;;;;;;5017853;28;20465;-52
2022/10/06 06:20:13;;;;;;;5.50;1.07;;;14.40;99.90;;;;;;5031673;28;20633;-51
2022/10/06 06:22:40;;;;;;;2.10;0.80;;;14.40;99.90;;;;;;5029718;28;20546;-51
2022/10/06 06:25:07;;;;;;;1.37;0.77;;;14.30;99.90;;;;;;5028205;28;20528;-52
2022/10/06 06:27:34;;;;;;;3.70;1.10;;;14.30;99.90;;;;;;5029637;28;20660;-52
2022/10/06 06:30:01;;;;;;;3.20;0.90;;;14.30;99.90;;;;;;5022649;28;20976;-51
2022/10/06 06:32:27;;;;;;;50.43;18.33;;;14.30;99.90;;;;;;5028637;28;20562;-51
2022/10/06 06:34:55;;;;;;;3.40;1.83;;;14.30;99.90;;;;;;5029546;28;20502;-53
2022/10/06 06:37:21;;;;;;;2.33;1.00;;;14.30;99.90;;;;;;5029985;28;20465;-51
2022/10/06 06:39:48;;;;;;;8.17;5.97;;;14.30;99.90;;;;;;5025832;28;21135;-51
2022/10/06 06:42:14;;;;;;;3.33;1.70;;;14.30;99.90;;;;;;5020824;28;20558;-51
2022/10/06 06:44:41;;;;;;;2.20;1.70;;;14.40;99.90;;;;;;5025840;28;21318;-53
2022/10/06 06:47:08;;;;;;;2.03;1.13;;;14.30;99.90;;;;;;5018335;28;20482;-52
2022/10/06 06:49:34;;;;;;;2.70;1.10;;;14.30;99.90;;;;;;5019895;28;20934;-51
2022/10/06 06:52:04;;;;;;;4.70;1.60;;;14.40;99.90;;;;;;5034640;28;20557;-51
2022/10/06 06:54:30;;;;;;;5.17;1.50;;;14.40;99.90;;;;;;5033176;28;20517;-51
2022/10/06 06:56:57;;;;;;;2.20;2.10;;;14.40;99.90;;;;;;5038741;28;21030;-52
2022/10/06 06:59:24;;;;;;;3.80;1.77;;;14.50;99.90;;;;;;5036932;28;20540;-50
2022/10/06 07:01:50;;;;;;;2.67;2.50;;;14.50;99.90;;;;;;5034857;28;20458;-51
2022/10/06 07:04:17;;;;;;;1.47;0.93;;;14.50;99.90;;;;;;5033107;28;21075;-51
2022/10/06 07:06:55;;;;;;;2.20;0.93;;;14.50;99.90;;;;;;5032363;28;20590;-51
2022/10/06 07:09:24;;;;;;;3.10;1.20;;;14.50;99.90;;;;;;5032475;28;20463;-51
2022/10/06 07:11:51;;;;;;;3.10;1.27;;;14.60;99.90;;;;;;5035727;28;20462;-51
2022/10/06 07:14:21;;;;;;;1.83;1.33;;;14.60;99.90;;;;;;5032172;28;20532;-51
2022/10/06 07:25:20;;;;;;;2.10;0.97;;;14.60;99.90;;;;;;5033321;28;20561;-51
2022/10/06 07:27:49;;;;;;;4.60;1.33;;;14.70;99.90;;;;;;5034387;28;20477;-52
2022/10/06 07:30:19;;;;;;;3.03;1.03;;;14.70;99.90;;;;;;5033600;28;20467;-51
2022/10/06 07:32:45;;;;;;;6.03;1.10;;;14.80;99.90;;;;;;5033849;28;20473;-51
2022/10/06 07:35:13;;;;;;;2.60;1.20;;;14.80;99.90;;;;;;5035209;28;20569;-52
2022/10/06 07:37:40;;;;;;;1.67;1.57;;;14.90;99.90;;;;;;5036971;28;20458;-52
2022/10/06 07:40:08;;;;;;;1.53;1.10;;;14.90;99.90;;;;;;5028635;28;20471;-51
2022/10/06 07:42:47;;;;;;;0.80;0.80;;;14.90;99.90;;;;;;5032539;28;21002;-52
2022/10/06 07:48:01;;;;;;;2.50;1.40;;;14.90;99.90;;;;;;5035474;28;20465;-51
2022/10/06 07:50:27;;;;;;;1.80;0.73;;;14.90;99.90;;;;;;5031374;28;22858;-50
2022/10/06 07:52:54;;;;;;;4.23;1.40;;;14.90;99.90;;;;;;5040028;28;20638;-49
2022/10/06 07:55:21;;;;;;;7.00;1.30;;;14.90;99.90;;;;;;5027989;28;20532;-48
2022/10/06 07:57:51;;;;;;;5.67;1.60;;;15.00;99.90;;;;;;5036514;28;20460;-49
2022/10/06 08:00:21;;;;;;;4.33;1.90;;;15.00;99.90;;;;;;5029939;28;20516;-49
2022/10/06 08:02:47;;;;;;;7.03;1.70;;;15.00;99.90;;;;;;5032849;28;20801;-49
2022/10/06 08:05:14;;;;;;;2.37;1.27;;;15.10;99.90;;;;;;5030940;28;20511;-49
2022/10/06 08:07:41;;;;;;;2.10;1.00;;;15.10;99.90;;;;;;5032872;28;20518;-49
2022/10/06 08:10:08;;;;;;;5.90;1.97;;;15.20;99.90;;;;;;5031345;28;20498;-50
2022/10/06 08:12:36;;;;;;;19.10;1.20;;;15.10;21.90;;;;;;5025813;28;20598;-49
2022/10/06 08:15:05;;;;;;;6.10;1.87;;;15.20;99.90;;;;;;5026102;28;20467;-48
2022/10/06 08:17:32;;;;;;;8.07;1.37;;;15.20;26.10;;;;;;5031754;28;20486;-48
2022/10/06 08:19:59;;;;;;;4.83;1.30;;;15.20;24.40;;;;;;5033421;28;20546;-49
2022/10/06 08:22:28;;;;;;;4.20;1.10;;;15.20;30.90;;;;;;5022382;28;20463;-49
2022/10/06 08:24:56;;;;;;;3.90;1.80;;;15.20;24.30;;;;;;5033301;28;20482;-48
2022/10/06 08:27:23;;;;;;;3.23;1.17;;;15.20;21.30;;;;;;5025516;28;20488;-49
2022/10/06 08:29:50;;;;;;;6.07;1.37;;;15.30;39.00;;;;;;5027615;28;20577;-48
2022/10/06 08:32:19;;;;;;;4.37;1.00;;;15.30;43.90;;;;;;5024818;28;20557;-48
2022/10/06 08:34:46;;;;;;;5.27;1.20;;;15.30;43.30;;;;;;5029083;28;20536;-49
2022/10/06 08:37:12;;;;;;;1.87;0.97;;;15.30;44.90;;;;;;5027336;28;20458;-50
2022/10/06 08:39:40;;;;;;;4.43;1.47;;;15.30;52.10;;;;;;5032425;28;20549;-48
2022/10/06 08:42:13;;;;;;;6.33;1.10;;;15.40;55.50;;;;;;5020575;28;20462;-49
2022/10/06 08:44:43;;;;;;;6.20;2.10;;;15.60;50.80;;;;;;5030537;28;20482;-49
2022/10/06 08:47:14;;;;;;;10.10;3.00;;;15.70;58.20;;;;;;5032396;28;20548;-49
2022/10/06 08:49:44;;;;;;;8.93;1.80;;;15.70;70.30;;;;;;5026219;28;20570;-49
2022/10/06 08:52:20;;;;;;;3.83;1.30;;;15.60;66.50;;;;;;5030941;28;20528;-47
2022/10/06 08:54:57;;;;;;;8.83;1.17;;;15.70;66.70;;;;;;5028033;28;21178;-50
2022/10/06 08:57:29;;;;;;;4.50;1.40;;;16.20;79.40;;;;;;5032775;28;21050;-49
2022/10/06 08:59:59;;;;;;;4.90;1.20;;;16.20;87.50;;;;;;5028637;28;20930;-49
2022/10/06 09:02:29;;;;;;;4.20;1.50;;;16.20;90.20;;;;;;5030175;28;20513;-49
2022/10/06 09:05:00;;;;;;;7.30;2.00;;;16.50;99.70;;;;;;5031053;28;20526;-49
2022/10/06 09:07:37;;;;;;;6.97;1.90;;;16.40;99.90;;;;;;5035387;28;21308;-49
2022/10/06 09:10:23;;;;;;;4.60;1.50;;;16.40;99.90;;;;;;5023146;28;20462;-49
2022/10/06 09:12:59;;;;;;;10.53;1.33;;;16.20;96.10;;;;;;5037212;28;20549;-48
2022/10/06 09:15:32;;;;;;;6.33;1.70;;;16.20;98.90;;;;;;5022709;28;20582;-47
2022/10/06 09:18:06;;;;;;;2.73;1.30;;;16.20;99.90;;;;;;5021453;28;20470;-48
2022/10/06 09:20:37;;;;;;;7.03;1.60;;;16.30;99.90;;;;;;5032399;28;20454;-49
2022/10/06 09:23:06;;;;;;;6.53;1.33;;;16.40;99.90;;;;;;5026979;28;20888;-49
2022/10/06 09:25:33;;;;;;;9.30;1.60;;;16.20;99.90;;;;;;5026523;28;20573;-50
2022/10/06 09:28:02;;;;;;;2.80;1.70;;;16.20;99.90;;;;;;5026956;28;20567;-51
2022/10/06 09:30:29;;;;;;;9.00;1.60;;;16.10;99.90;;;;;;5029976;28;20490;-51
2022/10/06 09:32:58;;;;;;;6.20;1.70;;;16.20;99.90;;;;;;5030533;28;20485;-51
2022/10/06 09:35:27;;;;;;;4.53;1.50;;;16.40;99.90;;;;;;5030894;28;20475;-51
2022/10/06 09:37:58;;;;;;;6.90;1.40;;;16.50;99.90;;;;;;5030774;28;20522;-51
2022/10/06 09:40:39;;;;;;;3.23;1.30;;;16.60;99.90;;;;;;5029615;28;20462;-51
2022/10/06 09:43:17;;;;;;;6.87;2.30;;;16.80;99.90;;;;;;5023704;28;20442;-52
2022/10/06 09:45:44;;;;;;;3.00;1.33;;;17.10;99.90;;;;;;5024996;28;20975;-51
2022/10/06 09:48:13;;;;;;;6.43;1.70;;;17.20;99.90;;;;;;5031421;28;20582;-51
2022/10/06 09:50:39;;;;;;;5.50;1.47;;;17.20;99.90;;;;;;5029702;28;20458;-52
2022/10/06 09:53:15;;;;;;;1.67;1.10;;;17.40;99.90;;;;;;5028880;28;20574;-51
2022/10/06 09:55:46;;;;;;;5.40;1.40;;;17.50;99.90;;;;;;5027430;28;20470;-51
2022/10/06 09:58:24;;;;;;;3.90;1.10;;;17.40;99.90;;;;;;5028882;28;20454;-51
2022/10/06 10:00:57;;;;;;;9.67;1.70;;;17.40;99.90;;;;;;5030985;28;20545;-51
2022/10/06 10:03:25;;;;;;;5.03;1.50;;;17.40;99.90;;;;;;5032323;28;20485;-51
2022/10/06 10:05:54;;;;;;;7.37;1.67;;;17.50;99.90;;;;;;5033677;28;21866;-51
2022/10/06 10:08:24;;;;;;;5.17;1.67;;;17.50;99.90;;;;;;5030404;28;20487;-52
2022/10/06 10:12:23;;;;;;;9.87;1.50;;;17.40;99.90;;;;;;5019549;28;20501;-55
2022/10/06 10:13:59;;;;;;;6.97;1.90;;;17.30;99.90;;;;;;5022185;28;21026;-52
2022/10/06 10:16:26;;;;;;;4.73;1.57;;;17.00;99.90;;;;;;5028394;28;20516;-52
2022/10/06 10:18:53;;;;;;;10.23;1.97;;;16.90;99.90;;;;;;5029975;28;20542;-52
2022/10/06 10:21:24;;;;;;;3.83;1.50;;;16.70;99.90;;;;;;5030232;28;20544;-52
2022/10/06 10:23:56;;;;;;;6.53;1.40;;;16.60;99.90;;;;;;5032391;28;20462;-52
2022/10/06 10:26:43;;;;;;;7.93;1.77;;;16.60;99.90;;;;;;5022033;28;20549;-51
2022/10/06 10:29:31;;;;;;;11.23;1.63;;;16.50;99.90;;;;;;5028658;28;20510;-52
2022/10/06 10:32:08;;;;;;;8.50;2.07;;;16.60;99.90;;;;;;5029658;28;20611;-52
2022/10/06 10:34:58;;;;;;;3.03;1.27;;;16.80;99.90;;;;;;5025595;28;20864;-50
2022/10/06 10:37:33;;;;;;;7.10;1.53;;;16.90;99.90;;;;;;5030597;28;20486;-51
2022/10/06 10:40:10;;;;;;;5.33;1.73;;;17.00;99.90;;;;;;5024309;28;20549;-51
2022/10/06 10:42:40;;;;;;;5.80;2.00;;;16.80;99.90;;;;;;5034255;28;20549;-51
2022/10/06 10:45:17;;;;;;;5.87;1.73;;;16.90;99.90;;;;;;5022782;28;20499;-52
2022/10/06 10:47:45;;;;;;;14.43;1.53;;;16.80;99.90;;;;;;5020164;28;20594;-51
2022/10/06 10:50:24;;;;;;;9.50;1.70;;;16.80;99.90;;;;;;5023659;28;20470;-51
2022/10/06 10:52:54;;;;;;;4.40;1.20;;;16.80;99.90;;;;;;5021557;28;20463;-52
2022/10/06 10:55:27;;;;;;;3.47;1.13;;;16.70;99.90;;;;;;5026815;28;20585;-51
2022/10/06 10:57:58;;;;;;;5.57;1.90;;;16.70;99.90;;;;;;5026648;28;20494;-51
2022/10/06 11:00:29;;;;;;;5.63;1.60;;;16.70;99.90;;;;;;5030822;28;20562;-51
2022/10/06 11:02:58;;;;;;;2.63;1.40;;;16.80;99.90;;;;;;5022827;28;20960;-51
2022/10/06 11:05:46;;;;;;;5.30;1.60;;;16.90;99.90;;;;;;5017157;28;20582;-51
2022/10/06 11:08:18;;;;;;;9.17;1.60;;;17.20;99.90;;;;;;5025228;28;20690;-51
2022/10/06 11:10:49;;;;;;;4.60;1.33;;;17.20;99.90;;;;;;5020407;28;21050;-52
2022/10/06 11:13:24;;;;;;;11.70;1.90;;;17.20;99.90;;;;;;5025202;28;20550;-51
2022/10/06 11:16:01;;;;;;;4.40;1.30;;;17.30;99.90;;;;;;5026074;28;20561;-52
2022/10/06 11:18:40;;;;;;;5.03;1.67;;;17.30;99.90;;;;;;5028818;28;20520;-51
2022/10/06 11:21:13;;;;;;;5.27;1.70;;;17.40;99.90;;;;;;5016767;28;20473;-51
2022/10/06 11:23:52;;;;;;;3.93;1.50;;;17.40;99.90;;;;;;5031060;28;20538;-51
2022/10/06 11:26:36;;;;;;;4.87;1.23;;;17.30;99.90;;;;;;5030634;28;20457;-51
2022/10/06 11:29:15;;;;;;;6.23;1.87;;;17.30;99.90;;;;;;5030587;28;20486;-51
2022/10/06 11:31:53;;;;;;;6.23;1.77;;;17.30;99.90;;;;;;5029782;28;20548;-52
2022/10/06 11:34:19;;;;;;;14.27;1.93;;;17.20;99.90;;;;;;5025506;28;21007;-51
2022/10/06 11:36:52;;;;;;;4.40;1.50;;;17.30;99.90;;;;;;5029233;28;20474;-51
2022/10/06 11:39:23;;;;;;;3.67;1.63;;;17.30;99.90;;;;;;5032957;28;20629;-51
2022/10/06 11:41:57;;;;;;;4.60;1.60;;;17.20;99.90;;;;;;5027973;28;20558;-52
2022/10/06 11:44:31;;;;;;;4.30;1.83;;;17.30;99.90;;;;;;5033173;28;20548;-51
2022/10/06 11:47:01;;;;;;;5.57;1.27;;;17.30;99.90;;;;;;5031567;28;20467;-52
2022/10/06 11:49:55;;;;;;;8.23;2.53;;;17.40;99.90;;;;;;5032602;28;21043;-52
2022/10/06 11:52:42;;;;;;;4.93;1.80;;;17.40;99.90;;;;;;5023552;28;20984;-52
2022/10/06 11:55:15;;;;;;;5.57;1.97;;;17.40;99.90;;;;;;5032903;28;20569;-52
2022/10/06 11:58:15;;;;;;;2.63;1.50;;;17.50;99.90;;;;;;5026498;28;20549;-52
2022/10/06 12:00:49;;;;;;;5.70;1.80;;;17.50;99.90;;;;;;5033986;28;20465;-51
2022/10/06 12:03:52;;;;;;;3.67;1.50;;;17.40;99.90;;;;;;5031185;28;20464;-52
2022/10/06 12:07:05;;;;;;;3.20;1.40;;;17.30;99.90;;;;;;5031086;28;20533;-52
2022/10/06 12:10:12;;;;;;;4.90;1.33;;;17.20;99.90;;;;;;5032938;28;20486;-53
2022/10/06 12:12:52;;;;;;;11.53;1.50;;;17.20;99.90;;;;;;5032524;28;20520;-52
2022/10/06 12:15:53;;;;;;;3.53;1.70;;;17.20;99.90;;;;;;5032555;28;20485;-52
2022/10/06 12:18:31;;;;;;;5.87;1.17;;;17.40;99.90;;;;;;5031124;28;20490;-51
2022/10/06 12:21:10;;;;;;;4.93;1.47;;;17.50;99.90;;;;;;5031518;28;20502;-52
2022/10/06 12:23:47;;;;;;;7.33;1.50;;;17.60;99.90;;;;;;5030831;28;20517;-51
2022/10/06 12:26:25;;;;;;;4.80;1.13;;;17.70;99.90;;;;;;5030429;28;20966;-51
2022/10/06 12:28:56;;;;;;;5.60;1.60;;;17.70;99.90;;;;;;5032634;28;20567;-51
2022/10/06 12:31:46;;;;;;;5.50;1.47;;;17.70;99.90;;;;;;5036453;28;20519;-52
2022/10/06 12:34:41;;;;;;;7.60;1.53;;;17.70;99.90;;;;;;5030071;28;20479;-52
2022/10/06 12:37:32;;;;;;;8.33;2.10;;;17.60;99.90;;;;;;5024942;28;20490;-51
2022/10/06 12:40:32;;;;;;;5.33;1.27;;;17.70;99.90;;;;;;5029840;28;20467;-52
2022/10/06 12:43:17;;;;;;;9.17;1.63;;;17.80;99.90;;;;;;5027345;28;20566;-51
2022/10/06 12:45:46;;;;;;;3.80;1.30;;;17.80;99.90;;;;;;5032871;28;20458;-52
2022/10/06 12:48:21;;;;;;;4.57;1.50;;;17.80;99.90;;;;;;5030283;28;22256;-52
2022/10/06 12:50:52;;;;;;;6.47;2.13;;;17.80;99.90;;;;;;5025344;28;21004;-48
2022/10/06 12:53:24;;;;;;;5.90;1.40;;;18.00;99.90;;;;;;5031078;28;20589;-53
2022/10/06 12:56:46;;;;;;;4.97;1.43;;;18.10;99.90;;;;;;5135004;22;20523;-50
2022/10/06 12:59:24;;;;;;;4.17;1.33;;;18.00;99.90;;;;;;5021456;28;21103;-49
2022/10/06 13:01:52;;;;;;;3.03;1.07;;;18.10;99.90;;;;;;5026914;28;20551;-49
2022/10/06 13:04:36;;;;;;;12.93;1.90;;;18.10;99.90;;;;;;5024752;28;20579;-50
2022/10/06 13:07:09;;;;;;;3.60;1.30;;;18.10;99.90;;;;;;5020149;28;20935;-46
2022/10/06 13:09:36;;;;;;;6.93;3.00;;;18.10;99.90;;;;;;5017012;28;20483;-47
2022/10/06 13:12:29;;;;;;;3.97;1.40;;;18.10;99.90;;;;;;5024546;28;20549;-47
2022/10/06 13:15:15;;;;;;;6.53;1.47;;;18.20;99.90;;;;;;5029845;28;20532;-47
2022/10/06 13:17:43;;;;;;;9.27;2.00;;;18.50;99.90;;;;;;5031900;28;20454;-46